sim
Sign-in with your pilot id or email,
or register
Callsign
Passwort

Schedule Details

Flight Number: DLH2393
Departure: Basel Mulhouse-Freiburg EuroAirport (LFSB) at 19:55
Arrival: Munich Airport (EDDM) at 20:55
Route: Lufthansa Passenger Schedule. Enter filed route here before submitting Pirep.

Weather Information
Getting current METAR information for LFSB 260130Z AUTO 26012KT 9999 -RA FEW015 BKN044 BKN058 09/07 Q1006 NOSIG
Getting current METAR information for EDDM 260150Z 26011KT 9999 -RA SCT014 BKN024 08/06 Q1000 NOSIG

Schedule Frequency

Route Map